createdAt,value
2018-07-05T00:01:04.190Z,16.78
2018-07-05T00:02:35.862Z,16.75
2018-07-05T00:04:07.334Z,16.68
2018-07-05T00:05:38.906Z,16.64
2018-07-05T00:07:10.484Z,16.61
2018-07-05T00:08:42.049Z,16.57
2018-07-05T00:10:13.620Z,16.58
2018-07-05T00:11:45.192Z,16.75
2018-07-05T00:13:16.764Z,16.73
2018-07-05T00:14:48.336Z,16.68
2018-07-05T00:16:19.907Z,16.78
2018-07-05T00:17:51.481Z,16.75
2018-07-05T00:19:23.051Z,16.60
2018-07-05T00:20:55.524Z,16.66
2018-07-05T00:22:26.195Z,16.73
2018-07-05T00:23:57.766Z,16.58
2018-07-05T00:25:29.339Z,16.58
2018-07-05T00:27:00.911Z,16.56
2018-07-05T00:28:32.482Z,16.57
2018-07-05T00:30:04.054Z,16.64
2018-07-05T00:31:35.625Z,16.61
2018-07-05T00:33:07.347Z,16.58
2018-07-05T00:34:38.768Z,16.53
2018-07-05T00:36:10.342Z,16.58
2018-07-05T00:37:41.912Z,16.58
2018-07-05T00:39:13.785Z,16.63
2018-07-05T00:40:45.056Z,16.58
2018-07-05T00:42:16.628Z,16.53
2018-07-05T00:43:48.199Z,16.49
2018-07-05T00:45:19.771Z,16.60
2018-07-05T00:46:51.343Z,16.53
2018-07-05T00:48:22.915Z,16.57
2018-07-05T00:49:54.487Z,16.39
2018-07-05T00:51:26.159Z,16.34
2018-07-05T00:52:57.629Z,16.38
2018-07-05T00:54:29.202Z,16.42
2018-07-05T00:56:00.773Z,16.34
2018-07-05T00:57:32.444Z,16.43
2018-07-05T00:59:03.917Z,16.46
2018-07-05T01:00:35.487Z,16.41
2018-07-05T01:02:07.060Z,16.41
2018-07-05T01:03:38.630Z,16.46
2018-07-05T01:05:10.201Z,16.42
2018-07-05T01:06:41.775Z,16.38
2018-07-05T01:08:13.345Z,16.35
2018-07-05T01:09:44.915Z,16.42
2018-07-05T01:11:16.487Z,16.46
2018-07-05T01:12:48.062Z,16.45
2018-07-05T01:14:19.629Z,16.45
2018-07-05T01:15:51.304Z,16.43
2018-07-05T01:17:22.775Z,16.39
2018-07-05T01:18:54.344Z,16.39
2018-07-05T01:20:25.915Z,16.45
2018-07-05T01:21:57.488Z,16.42
2018-07-05T01:23:29.058Z,16.39
2018-07-05T01:25:00.629Z,16.33
2018-07-05T01:26:32.200Z,16.45
2018-07-05T01:28:03.771Z,16.39
2018-07-05T01:29:35.343Z,16.38
2018-07-05T01:31:06.914Z,16.43
2018-07-05T01:32:38.485Z,16.33
2018-07-05T01:34:10.157Z,16.38
2018-07-05T01:35:41.628Z,16.33
2018-07-05T01:37:13.201Z,16.38
2018-07-05T01:38:44.770Z,16.30
2018-07-05T01:40:16.492Z,16.23
2018-07-05T01:41:47.913Z,16.20
2018-07-05T01:43:19.484Z,16.20
2018-07-05T01:44:51.058Z,16.12
2018-07-05T01:46:22.627Z,16.09
2018-07-05T01:47:54.197Z,16.01
2018-07-05T01:49:25.768Z,16.07
2018-07-05T01:50:57.340Z,16.02
2018-07-05T01:52:29.462Z,15.94
2018-07-05T01:54:00.482Z,15.86
2018-07-05T01:55:32.052Z,15.87
2018-07-05T01:57:03.624Z,15.84
2018-07-05T01:58:35.194Z,15.87
2018-07-05T02:00:06.766Z,15.78
2018-07-05T02:01:38.335Z,15.78
2018-07-05T02:03:09.905Z,15.80
2018-07-05T02:04:41.480Z,15.75
2018-07-05T02:06:13.048Z,15.80
2018-07-05T02:07:44.618Z,15.65
2018-07-05T02:09:16.189Z,15.59
2018-07-05T02:10:47.859Z,15.64
2018-07-05T02:12:19.330Z,15.71
2018-07-05T02:13:50.900Z,15.64
2018-07-05T02:15:22.470Z,15.49
2018-07-05T02:16:54.041Z,15.53
2018-07-05T02:18:25.619Z,15.49
2018-07-05T02:19:57.182Z,15.62
2018-07-05T02:21:28.757Z,15.50
2018-07-05T02:23:00.426Z,15.56
2018-07-05T02:24:31.894Z,15.50
2018-07-05T02:26:03.464Z,15.56
2018-07-05T02:27:35.035Z,15.84
2018-07-05T02:29:06.955Z,16.07
2018-07-05T02:30:38.180Z,16.08
2018-07-05T02:32:09.747Z,15.97
2018-07-05T02:33:41.315Z,16.01
2018-07-05T02:35:12.886Z,16.21
2018-07-05T02:36:44.456Z,16.34
2018-07-05T02:38:16.026Z,16.21
2018-07-05T02:39:47.597Z,16.15
2018-07-05T02:41:19.167Z,16.15
2018-07-05T02:42:50.737Z,15.96
2018-07-05T02:44:22.308Z,15.82
2018-07-05T02:45:53.881Z,15.69
2018-07-05T02:47:25.548Z,15.62
2018-07-05T02:48:57.018Z,15.59
2018-07-05T02:50:28.589Z,15.46
2018-07-05T02:52:00.163Z,15.43
2018-07-05T02:53:31.729Z,15.36
2018-07-05T02:55:03.299Z,15.27
2018-07-05T02:56:34.870Z,15.28
2018-07-05T02:58:06.441Z,15.31
2018-07-05T02:59:38.261Z,15.46
2018-07-05T03:01:09.581Z,15.84
2018-07-05T03:02:41.151Z,15.84
2018-07-05T03:04:12.721Z,15.71
2018-07-05T03:05:44.392Z,15.54
2018-07-05T03:07:15.862Z,15.50
2018-07-05T03:08:47.434Z,15.38
2018-07-05T03:10:19.002Z,15.35
2018-07-05T03:11:50.573Z,15.27
2018-07-05T03:13:22.142Z,15.31
2018-07-05T03:14:53.723Z,15.16
2018-07-05T03:16:25.291Z,15.20
2018-07-05T03:17:56.854Z,15.10
2018-07-05T03:19:28.431Z,15.09
2018-07-05T03:20:59.995Z,15.13
2018-07-05T03:22:31.564Z,15.10
2018-07-05T03:24:03.385Z,15.06
2018-07-05T03:25:34.704Z,15.02
2018-07-05T03:27:06.274Z,14.98
2018-07-05T03:28:37.844Z,14.94
2018-07-05T03:30:09.665Z,15.03
2018-07-05T03:31:40.989Z,15.06
2018-07-05T03:33:12.555Z,15.02
2018-07-05T03:34:44.126Z,14.98
2018-07-05T03:36:15.694Z,14.99
2018-07-05T03:37:47.265Z,14.89
2018-07-05T03:39:18.835Z,14.88
2018-07-05T03:40:50.404Z,14.81
2018-07-05T03:42:22.275Z,14.73
2018-07-05T03:43:53.544Z,15.01
2018-07-05T03:45:25.114Z,15.36
2018-07-05T03:46:56.683Z,15.36
2018-07-05T03:48:28.253Z,15.06
2018-07-05T03:49:59.823Z,14.94
2018-07-05T03:51:31.421Z,15.02
2018-07-05T03:53:02.963Z,14.89
2018-07-05T03:54:34.535Z,14.88
2018-07-05T03:56:06.103Z,14.89
2018-07-05T03:57:37.672Z,15.02
2018-07-05T03:59:09.242Z,15.44
2018-07-05T04:00:40.912Z,15.47
2018-07-05T04:02:12.382Z,15.35
2018-07-05T04:03:43.953Z,15.07
2018-07-05T04:05:15.521Z,14.96
2018-07-05T04:06:47.091Z,14.88
2018-07-05T04:08:18.685Z,14.91
2018-07-05T04:09:50.231Z,14.91
2018-07-05T04:11:21.801Z,14.92
2018-07-05T04:12:53.521Z,14.78
2018-07-05T04:14:24.943Z,14.98
2018-07-05T04:15:56.510Z,15.14
2018-07-05T04:17:28.080Z,15.31
2018-07-05T04:18:59.901Z,15.49
2018-07-05T04:20:31.220Z,15.51
2018-07-05T04:22:02.790Z,15.01
2018-07-05T04:23:34.359Z,14.77
2018-07-05T04:25:06.080Z,14.77
2018-07-05T04:26:37.501Z,14.65
2018-07-05T04:28:09.070Z,14.58
2018-07-05T04:29:40.639Z,14.55
2018-07-05T04:31:12.209Z,14.52
2018-07-05T04:32:43.779Z,14.58
2018-07-05T04:34:15.420Z,15.09
2018-07-05T04:35:46.919Z,15.21
2018-07-05T04:37:18.589Z,15.01
2018-07-05T04:38:50.060Z,14.72
2018-07-05T04:40:21.627Z,14.64
2018-07-05T04:41:53.197Z,14.54
2018-07-05T04:43:24.867Z,14.50
2018-07-05T04:44:56.341Z,14.57
2018-07-05T04:46:27.907Z,14.54
2018-07-05T04:47:59.574Z,14.46
2018-07-05T04:49:31.054Z,14.47
2018-07-05T04:51:02.616Z,14.39
2018-07-05T04:52:34.185Z,14.36
2018-07-05T04:54:05.756Z,14.36
2018-07-05T04:55:37.485Z,14.29
2018-07-05T04:57:08.895Z,14.35
2018-07-05T04:58:40.471Z,14.36
2018-07-05T05:00:12.034Z,14.36
2018-07-05T05:01:43.604Z,15.01
2018-07-05T05:03:15.173Z,15.36
2018-07-05T05:04:46.754Z,15.03
2018-07-05T05:06:18.313Z,14.81
2018-07-05T05:07:49.883Z,14.86
2018-07-05T05:09:21.454Z,15.31
2018-07-05T05:10:53.023Z,15.03
2018-07-05T05:12:24.605Z,15.53
2018-07-05T05:13:56.462Z,14.96
2018-07-05T05:15:27.736Z,14.55
2018-07-05T05:16:59.306Z,14.55
2018-07-05T05:18:30.871Z,14.37
2018-07-05T05:20:02.441Z,14.42
2018-07-05T05:21:34.011Z,14.37
2018-07-05T05:23:05.580Z,14.28
2018-07-05T05:24:37.150Z,14.40
2018-07-05T05:26:08.821Z,14.57
2018-07-05T05:27:40.292Z,14.52
2018-07-05T05:29:11.859Z,14.50
2018-07-05T05:30:43.428Z,14.33
2018-07-05T05:32:15.098Z,14.22
2018-07-05T05:33:46.568Z,14.17
2018-07-05T05:35:18.137Z,14.18
2018-07-05T05:36:49.707Z,14.15
2018-07-05T05:38:21.276Z,14.21
2018-07-05T05:39:52.845Z,14.33
2018-07-05T05:41:24.416Z,14.68
2018-07-05T05:42:55.985Z,15.46
2018-07-05T05:44:27.554Z,15.68
2018-07-05T05:45:59.123Z,15.87
2018-07-05T05:47:30.693Z,15.84
2018-07-05T05:49:02.262Z,15.78
2018-07-05T05:50:34.032Z,15.53
2018-07-05T05:52:05.401Z,15.54
2018-07-05T05:53:36.971Z,15.44
2018-07-05T05:55:08.542Z,15.28
2018-07-05T05:56:40.212Z,14.95
2018-07-05T05:58:11.680Z,14.77
2018-07-05T05:59:43.250Z,14.78
2018-07-05T06:01:14.820Z,14.80
2018-07-05T06:02:46.640Z,15.02
2018-07-05T06:04:17.959Z,15.32
2018-07-05T06:05:49.528Z,14.94
2018-07-05T06:07:21.103Z,14.46
2018-07-05T06:08:52.768Z,14.45
2018-07-05T06:10:24.238Z,14.24
2018-07-05T06:11:55.811Z,14.15
2018-07-05T06:13:27.376Z,14.07
2018-07-05T06:14:58.948Z,14.22
2018-07-05T06:16:30.517Z,14.24
2018-07-05T06:18:02.087Z,14.14
2018-07-05T06:19:33.655Z,14.17
2018-07-05T06:21:05.229Z,14.12
2018-07-05T06:22:36.795Z,14.10
2018-07-05T06:24:08.364Z,14.14
2018-07-05T06:25:39.970Z,14.12
2018-07-05T06:27:11.703Z,14.29
2018-07-05T06:28:43.076Z,14.36
2018-07-05T06:30:14.642Z,14.21
2018-07-05T06:31:46.212Z,14.12
2018-07-05T06:33:18.032Z,14.12
2018-07-05T06:34:49.351Z,13.97
2018-07-05T06:36:20.922Z,13.97
2018-07-05T06:37:52.489Z,13.89
2018-07-05T06:39:24.059Z,13.88
2018-07-05T06:40:55.629Z,13.71
2018-07-05T06:42:27.199Z,14.00
2018-07-05T06:43:58.767Z,14.28
2018-07-05T06:45:30.636Z,14.25
2018-07-05T06:47:01.906Z,14.15
2018-07-05T06:48:33.475Z,14.15
2018-07-05T06:50:05.045Z,14.04
2018-07-05T06:51:36.614Z,13.99
2018-07-05T06:53:08.227Z,13.96
2018-07-05T06:54:39.752Z,13.96
2018-07-05T06:56:11.321Z,13.91
2018-07-05T06:57:42.991Z,13.92
2018-07-05T06:59:14.477Z,13.92
2018-07-05T07:00:46.031Z,13.87
2018-07-05T07:02:17.598Z,13.81
2018-07-05T07:03:49.519Z,14.14
2018-07-05T07:05:20.737Z,14.36
2018-07-05T07:06:52.306Z,14.45
2018-07-05T07:08:23.875Z,14.54
2018-07-05T07:09:55.595Z,14.42
2018-07-05T07:11:27.014Z,14.12
2018-07-05T07:12:58.583Z,14.02
2018-07-05T07:14:30.153Z,13.99
2018-07-05T07:16:01.870Z,14.15
2018-07-05T07:17:33.291Z,14.40
2018-07-05T07:19:04.861Z,14.72
2018-07-05T07:20:36.429Z,14.86
2018-07-05T07:22:08.099Z,14.37
2018-07-05T07:23:39.568Z,14.17
2018-07-05T07:25:11.137Z,14.12
2018-07-05T07:26:42.706Z,14.29
2018-07-05T07:28:14.375Z,14.24
2018-07-05T07:29:45.845Z,14.27
2018-07-05T07:31:17.448Z,14.17
2018-07-05T07:32:48.990Z,13.97
2018-07-05T07:34:20.803Z,13.87
2018-07-05T07:35:52.122Z,13.73
2018-07-05T07:37:23.743Z,13.66
2018-07-05T07:38:55.294Z,13.60
2018-07-05T07:40:26.931Z,13.55
2018-07-05T07:41:58.401Z,13.54
2018-07-05T07:43:29.969Z,13.70
2018-07-05T07:45:01.541Z,13.64
2018-07-05T07:46:33.258Z,13.62
2018-07-05T07:48:04.677Z,13.60
2018-07-05T07:49:36.245Z,13.70
2018-07-05T07:51:07.815Z,13.69
2018-07-05T07:52:39.484Z,13.67
2018-07-05T07:54:10.954Z,13.62
2018-07-05T07:55:42.522Z,13.63
2018-07-05T07:57:14.092Z,13.67
2018-07-05T07:58:45.861Z,13.57
2018-07-05T08:00:17.230Z,13.62
2018-07-05T08:01:48.799Z,13.77
2018-07-05T08:03:20.370Z,13.85
2018-07-05T08:04:52.188Z,13.95
2018-07-05T08:06:23.506Z,13.99
2018-07-05T08:07:55.115Z,14.27
2018-07-05T08:09:26.645Z,14.65
2018-07-05T08:10:58.214Z,14.58
2018-07-05T08:12:29.783Z,14.12
2018-07-05T08:14:01.352Z,13.82
2018-07-05T08:15:32.921Z,13.64
2018-07-05T08:17:04.745Z,13.44
2018-07-05T08:18:36.060Z,13.59
2018-07-05T08:20:07.629Z,13.71
2018-07-05T08:21:39.197Z,14.03
2018-07-05T08:23:10.767Z,14.03
2018-07-05T08:24:42.338Z,14.04
2018-07-05T08:26:13.908Z,14.03
2018-07-05T08:27:45.477Z,13.96
2018-07-05T08:29:17.143Z,14.27
2018-07-05T08:30:48.612Z,14.68
2018-07-05T08:32:20.181Z,14.91
2018-07-05T08:33:51.751Z,14.92
2018-07-05T08:35:23.670Z,15.19
2018-07-05T08:36:54.891Z,15.09
2018-07-05T08:38:26.458Z,15.21
2018-07-05T08:39:58.028Z,15.23
2018-07-05T08:41:29.599Z,15.25
2018-07-05T08:43:01.167Z,15.29
2018-07-05T08:44:32.736Z,15.29
2018-07-05T08:46:04.305Z,15.41
2018-07-05T08:47:35.874Z,15.51
2018-07-05T08:49:07.444Z,15.51
2018-07-05T08:50:39.013Z,15.46
2018-07-05T08:52:10.583Z,15.54
2018-07-05T08:53:42.253Z,15.53
2018-07-05T08:55:16.627Z,15.47
2018-07-05T08:56:45.293Z,15.50
2018-07-05T08:58:16.936Z,15.56
2018-07-05T08:59:48.532Z,15.49
2018-07-05T09:01:20.002Z,15.39
2018-07-05T09:02:51.571Z,15.50
2018-07-05T09:04:23.141Z,15.51
2018-07-05T09:05:54.962Z,15.64
2018-07-05T09:07:26.281Z,15.50
2018-07-05T09:08:57.851Z,15.53
2018-07-05T09:10:29.421Z,15.64
2018-07-05T09:12:01.091Z,15.68
2018-07-05T09:13:32.560Z,15.68
2018-07-05T09:15:04.131Z,15.83
2018-07-05T09:16:35.704Z,15.80
2018-07-05T09:18:07.420Z,15.71
2018-07-05T09:19:38.840Z,15.68
2018-07-05T09:21:10.410Z,15.67
2018-07-05T09:22:41.980Z,15.82
2018-07-05T09:24:13.549Z,15.83
2018-07-05T09:25:45.119Z,15.78
2018-07-05T09:27:16.690Z,15.78
2018-07-05T09:28:48.259Z,15.84
2018-07-05T09:30:20.030Z,15.75
2018-07-05T09:31:51.440Z,15.87
2018-07-05T09:33:22.969Z,15.78
2018-07-05T09:34:54.539Z,15.90
2018-07-05T09:36:26.361Z,15.78
2018-07-05T09:37:57.679Z,15.82
2018-07-05T09:39:29.248Z,15.82
2018-07-05T09:41:00.818Z,15.90
2018-07-05T09:42:32.390Z,16.00
2018-07-05T09:44:03.958Z,15.96
2018-07-05T09:45:35.532Z,15.97
2018-07-05T09:47:07.211Z,15.94
2018-07-05T09:48:38.967Z,16.05
2018-07-05T09:50:10.237Z,16.07
2018-07-05T09:51:41.830Z,16.02
2018-07-05T09:53:13.376Z,16.09
2018-07-05T09:54:44.946Z,16.11
2018-07-05T09:56:16.517Z,16.11
2018-07-05T09:57:48.086Z,16.23
2018-07-05T09:59:19.656Z,16.23
2018-07-05T10:00:51.326Z,16.17
2018-07-05T10:02:22.798Z,16.21
2018-07-05T10:03:54.366Z,16.20
2018-07-05T10:05:25.938Z,16.21
2018-07-05T10:06:57.856Z,16.24
2018-07-05T10:08:29.075Z,16.20
2018-07-05T10:10:00.646Z,16.21
2018-07-05T10:11:32.215Z,16.23
2018-07-05T10:13:03.818Z,16.24
2018-07-05T10:14:35.357Z,16.28
2018-07-05T10:16:06.926Z,16.27
2018-07-05T10:17:38.503Z,16.28
2018-07-05T10:19:10.066Z,16.33
2018-07-05T10:20:41.636Z,16.34
2018-07-05T10:22:13.207Z,16.38
2018-07-05T10:23:44.776Z,16.42
2018-07-05T10:25:16.448Z,16.34
2018-07-05T10:26:47.917Z,16.39
2018-07-05T10:28:19.486Z,16.39
2018-07-05T10:29:51.086Z,16.38
2018-07-05T10:31:22.627Z,16.39
2018-07-05T10:32:54.250Z,16.39
2018-07-05T10:34:25.769Z,16.43
2018-07-05T10:35:57.338Z,16.42
2018-07-05T10:37:29.160Z,16.42
2018-07-05T10:39:00.482Z,16.41
2018-07-05T10:40:32.050Z,16.34
2018-07-05T10:42:03.619Z,16.39
2018-07-05T10:43:35.292Z,16.31
2018-07-05T10:45:06.760Z,16.41
2018-07-05T10:46:38.635Z,16.41
2018-07-05T10:48:09.901Z,16.31
2018-07-05T10:49:41.471Z,16.41
2018-07-05T10:51:13.042Z,16.33
2018-07-05T10:54:16.184Z,16.41
2018-07-05T10:55:47.780Z,16.31
2018-07-05T10:57:19.327Z,16.42
2018-07-05T10:58:50.894Z,16.41
2018-07-05T11:00:22.669Z,16.42
2018-07-05T11:01:54.258Z,16.38
2018-07-05T11:03:25.778Z,16.34
2018-07-05T11:04:57.177Z,16.41
2018-07-05T11:06:28.748Z,16.46
2018-07-05T11:08:00.569Z,16.43
2018-07-05T11:09:31.889Z,16.39
2018-07-05T11:11:03.460Z,16.52
2018-07-05T11:12:35.031Z,16.50
2018-07-05T11:14:06.906Z,16.56
2018-07-05T11:15:38.175Z,16.58
2018-07-05T11:17:09.744Z,16.53
2018-07-05T11:18:41.316Z,16.50
2018-07-05T11:20:12.987Z,16.46
2018-07-05T11:21:44.661Z,16.43
2018-07-05T11:23:16.029Z,16.53
2018-07-05T11:24:47.651Z,16.45
2018-07-05T11:26:19.271Z,16.45
2018-07-05T11:27:50.742Z,16.49
2018-07-05T11:29:22.313Z,16.46
2018-07-05T11:30:53.885Z,16.64
2018-07-05T11:32:25.560Z,16.58
2018-07-05T11:33:57.030Z,16.71
2018-07-05T11:35:28.606Z,16.61
2018-07-05T11:37:00.170Z,16.82
2018-07-05T11:38:31.841Z,16.75
2018-07-05T11:40:03.316Z,16.66
2018-07-05T11:41:34.885Z,16.64
2018-07-05T11:43:06.658Z,16.75
2018-07-05T11:44:38.138Z,16.71
2018-07-05T11:46:09.601Z,16.71
2018-07-05T11:47:41.173Z,16.78
2018-07-05T11:49:12.745Z,16.78
2018-07-05T11:50:44.325Z,16.64
2018-07-05T11:52:15.975Z,16.73
2018-07-05T11:53:47.490Z,16.78
2018-07-05T11:55:19.033Z,16.66
2018-07-05T11:56:50.705Z,16.78
2018-07-05T11:58:22.179Z,16.79
2018-07-05T11:59:53.818Z,16.89
2018-07-05T12:01:25.326Z,17.00
2018-07-05T12:02:56.981Z,17.04
2018-07-05T12:04:28.675Z,17.23
2018-07-05T12:06:00.345Z,17.23
2018-07-05T12:07:31.613Z,17.22
2018-07-05T12:09:03.188Z,17.23
2018-07-05T12:10:34.772Z,17.25
2018-07-05T12:12:06.333Z,17.33
2018-07-05T12:13:37.925Z,17.43
2018-07-05T12:15:09.581Z,17.92
2018-07-05T12:16:41.054Z,18.03
2018-07-05T12:18:12.628Z,17.77
2018-07-05T12:19:44.217Z,17.56
2018-07-05T12:21:15.776Z,17.72
2018-07-05T12:22:47.958Z,17.81
2018-07-05T12:24:18.981Z,17.78
2018-07-05T12:27:22.102Z,18.27
2018-07-05T12:28:53.650Z,18.17
2018-07-05T12:30:25.225Z,18.26
2018-07-05T12:31:56.806Z,18.51
2018-07-05T12:33:28.683Z,18.36
2018-07-05T12:34:59.952Z,18.85
2018-07-05T12:36:31.527Z,19.48
2018-07-05T12:38:03.675Z,19.07
2018-07-05T12:41:06.559Z,19.43
2018-07-05T12:42:38.137Z,19.33
2018-07-05T12:44:09.407Z,18.67
2018-07-05T12:45:40.985Z,19.04
2018-07-05T12:47:12.965Z,19.81
2018-07-05T12:50:15.716Z,20.02
2018-07-05T12:51:47.341Z,20.61
2018-07-05T12:53:19.115Z,21.58
2018-07-05T12:54:50.450Z,21.42
2018-07-05T12:56:22.540Z,21.98
2018-07-05T12:57:53.606Z,21.52
2018-07-05T12:59:25.187Z,21.29
2018-07-05T13:00:56.764Z,20.85
2018-07-05T13:02:28.343Z,21.37
2018-07-05T13:04:00.008Z,21.77
2018-07-05T13:05:31.505Z,20.94
2018-07-05T13:07:03.082Z,21.46
2018-07-05T13:08:34.966Z,21.80
2018-07-05T13:10:06.778Z,22.18
2018-07-05T13:11:37.922Z,22.52
2018-07-05T13:13:09.402Z,22.80
2018-07-05T13:14:40.984Z,23.04
2018-07-05T13:17:44.365Z,22.98
2018-07-05T13:19:15.825Z,22.47
2018-07-05T13:20:47.613Z,21.75
2018-07-05T13:22:18.924Z,22.00
2018-07-05T13:23:50.465Z,22.31
2018-07-05T13:26:53.629Z,22.94
2018-07-05T13:29:57.193Z,23.16
2018-07-05T13:31:29.328Z,23.65
2018-07-05T13:32:59.998Z,23.84
2018-07-05T13:34:31.535Z,23.48
2018-07-05T13:37:34.863Z,23.28
2018-07-05T13:39:06.278Z,23.70
2018-07-05T13:42:09.707Z,23.17
2018-07-05T13:43:41.325Z,22.90
2018-07-05T13:45:12.607Z,23.10
2018-07-05T13:46:44.185Z,23.28
2018-07-05T13:48:15.944Z,23.51
2018-07-05T13:49:47.704Z,23.22
2018-07-05T13:51:18.932Z,23.87
2018-07-05T13:52:50.713Z,23.90
2018-07-05T13:54:22.093Z,24.12
2018-07-05T13:55:54.456Z,23.98
2018-07-05T13:57:25.254Z,23.35
2018-07-05T13:58:57.041Z,23.46
2018-07-05T14:00:28.425Z,23.73
2018-07-05T14:02:00.203Z,23.94
2018-07-05T14:03:31.606Z,23.87
2018-07-05T14:05:03.367Z,23.88
2018-07-05T14:06:34.747Z,24.21
2018-07-05T14:08:06.434Z,24.62
2018-07-05T14:09:38.113Z,24.58
2018-07-05T14:11:09.493Z,24.39
2018-07-05T14:12:41.075Z,25.14
2018-07-05T14:14:12.658Z,25.42
2018-07-05T14:15:44.544Z,24.50
2018-07-05T14:17:15.822Z,24.99
2018-07-05T14:18:47.406Z,25.51
2018-07-05T14:20:19.139Z,25.32
2018-07-05T14:21:50.574Z,25.47
2018-07-05T14:23:22.154Z,25.54
2018-07-05T14:24:53.838Z,25.35
2018-07-05T14:26:25.614Z,24.39
2018-07-05T14:29:28.690Z,24.62
2018-07-05T14:31:00.105Z,24.91
2018-07-05T14:32:32.058Z,24.91
2018-07-05T14:34:03.252Z,25.55
2018-07-05T14:35:35.376Z,25.97
2018-07-05T14:37:06.646Z,25.72
2018-07-05T14:38:37.996Z,26.67
2018-07-05T14:40:09.794Z,25.67
2018-07-05T14:43:13.269Z,25.97
2018-07-05T14:46:16.459Z,25.64
2018-07-05T14:47:47.485Z,26.47
2018-07-05T14:49:19.068Z,27.43
2018-07-05T14:50:50.652Z,27.47
2018-07-05T14:53:53.823Z,27.60
2018-07-05T14:56:56.987Z,25.94
2018-07-05T14:58:28.635Z,25.51
2018-07-05T15:00:00.157Z,26.43
2018-07-05T15:01:31.744Z,27.47
2018-07-05T15:03:03.342Z,26.09
2018-07-05T15:04:34.908Z,25.99
2018-07-05T15:06:06.593Z,25.73
2018-07-05T15:07:38.076Z,26.02
2018-07-05T15:10:41.246Z,27.66
2018-07-05T15:12:13.122Z,27.84
2018-07-05T15:13:44.438Z,28.40
2018-07-05T15:15:16.008Z,28.24
2018-07-05T15:16:47.585Z,27.50
2018-07-05T15:18:19.214Z,27.57
2018-07-05T15:19:50.921Z,27.50
2018-07-05T15:21:23.406Z,26.92
2018-07-05T15:22:54.125Z,27.41
2018-07-05T15:25:57.592Z,27.90
2018-07-05T15:27:28.687Z,27.90
2018-07-05T15:29:00.266Z,27.78
2018-07-05T15:30:31.860Z,28.11
2018-07-05T15:32:03.429Z,28.56
2018-07-05T15:33:35.015Z,28.34
2018-07-05T15:35:06.603Z,28.55
2018-07-05T15:36:38.186Z,29.04
2018-07-05T15:38:09.769Z,29.14
2018-07-05T15:39:41.356Z,29.08
2018-07-05T15:41:12.939Z,28.73
2018-07-05T15:42:45.461Z,28.29
2018-07-05T15:44:16.210Z,28.49
2018-07-05T15:45:47.696Z,28.22
2018-07-05T15:48:50.864Z,27.65
2018-07-05T15:50:22.754Z,27.75
2018-07-05T15:51:54.035Z,28.59
2018-07-05T15:53:25.620Z,28.34
2018-07-05T15:54:57.431Z,29.12
2018-07-05T15:56:28.790Z,29.57
2018-07-05T15:58:00.377Z,29.39
2018-07-05T15:59:31.961Z,29.53
2018-07-05T16:02:35.232Z,29.79
2018-07-05T16:04:07.223Z,28.93
2018-07-05T16:05:38.302Z,28.59
2018-07-05T16:07:09.887Z,28.76
2018-07-05T16:08:41.675Z,29.55
2018-07-05T16:10:13.079Z,29.65
2018-07-05T16:13:16.230Z,29.11
2018-07-05T16:14:47.815Z,29.98
2018-07-05T16:16:19.635Z,30.98
2018-07-05T16:17:50.986Z,30.58
2018-07-05T16:19:22.829Z,31.09
2018-07-05T16:20:54.260Z,31.17
2018-07-05T16:22:25.744Z,31.26
2018-07-05T16:23:57.380Z,28.90
2018-07-05T16:25:29.227Z,29.12
2018-07-05T16:27:00.602Z,28.85
2018-07-05T16:28:32.088Z,28.92
2018-07-05T16:30:03.677Z,29.05
2018-07-05T16:31:35.259Z,29.34
2018-07-05T16:33:07.148Z,30.55
2018-07-05T16:34:38.460Z,30.39
2018-07-05T16:36:10.036Z,30.64
2018-07-05T16:37:41.805Z,31.19
2018-07-05T16:39:13.493Z,31.31
2018-07-05T16:40:45.310Z,29.78
2018-07-05T16:42:16.364Z,28.22
2018-07-05T16:43:47.947Z,28.15
2018-07-05T16:45:19.532Z,29.23
2018-07-05T16:46:51.117Z,29.43
2018-07-05T16:49:54.534Z,28.76
2018-07-05T16:51:25.874Z,29.64
2018-07-05T16:52:57.460Z,29.06
2018-07-05T16:56:00.748Z,28.07
2018-07-05T16:57:32.317Z,28.18
2018-07-05T16:59:03.799Z,27.74
2018-07-05T17:00:35.385Z,27.54
2018-07-05T17:05:10.169Z,28.77
2018-07-05T17:06:41.728Z,29.37
2018-07-05T17:08:13.309Z,29.24
2018-07-05T17:11:16.506Z,30.55
2018-07-05T17:12:48.062Z,31.21
2018-07-05T17:14:19.644Z,30.47
2018-07-05T17:15:51.240Z,31.10
2018-07-05T17:17:23.354Z,31.28
2018-07-05T17:18:54.424Z,29.04
2018-07-05T17:20:25.983Z,30.19
2018-07-05T17:21:57.568Z,30.89
2018-07-05T17:25:00.769Z,29.15
2018-07-05T17:26:32.325Z,29.76
2018-07-05T17:28:03.910Z,30.76
2018-07-05T17:29:35.495Z,30.27
2018-07-05T17:34:10.349Z,30.20
2018-07-05T17:35:41.835Z,28.71
2018-07-05T17:37:13.419Z,27.44
2018-07-05T17:38:45.307Z,28.02
2018-07-05T17:40:16.849Z,28.51
2018-07-05T17:41:48.347Z,28.55
2018-07-05T17:43:19.757Z,27.39
2018-07-05T17:44:51.340Z,26.91
2018-07-05T17:47:55.582Z,27.44
2018-07-05T17:49:27.031Z,27.50
2018-07-05T17:50:57.702Z,27.50
2018-07-05T17:52:29.257Z,27.59
2018-07-05T17:54:01.252Z,27.69
2018-07-05T17:55:32.509Z,28.73
2018-07-05T17:57:04.005Z,28.48
2018-07-05T17:58:35.601Z,27.92
2018-07-05T18:00:07.398Z,27.50
2018-07-05T18:01:38.805Z,28.04
2018-07-05T18:03:10.336Z,29.53
2018-07-05T18:04:41.918Z,29.53
2018-07-05T18:06:13.501Z,30.11
2018-07-05T18:07:45.337Z,30.02
2018-07-05T18:09:16.717Z,29.19
2018-07-05T18:10:48.294Z,28.06
2018-07-05T18:13:51.720Z,26.92
2018-07-05T18:16:54.883Z,27.14
2018-07-05T18:18:26.181Z,27.84
2018-07-05T18:19:58.085Z,28.04
2018-07-05T18:21:29.339Z,27.39
2018-07-05T18:24:33.243Z,27.54
2018-07-05T18:26:04.088Z,29.16
2018-07-05T18:27:35.656Z,30.37
2018-07-05T18:29:07.235Z,31.34
2018-07-05T18:30:38.818Z,30.98
2018-07-05T18:32:10.700Z,30.79
2018-07-05T18:33:42.040Z,31.38
2018-07-05T18:35:13.564Z,31.47
2018-07-05T18:36:45.179Z,31.96
2018-07-05T18:38:16.731Z,31.92
2018-07-05T18:39:48.820Z,31.70
2018-07-05T18:41:19.895Z,30.92
2018-07-05T18:42:51.478Z,29.15
2018-07-05T18:44:23.060Z,28.18
2018-07-05T18:45:54.643Z,27.37
2018-07-05T18:47:26.242Z,27.19
2018-07-05T18:50:29.694Z,28.96
2018-07-05T18:52:01.159Z,28.44
2018-07-05T18:53:32.915Z,28.22
2018-07-05T18:55:04.169Z,28.18
2018-07-05T18:56:35.727Z,28.37
2018-07-05T18:58:07.304Z,28.64
2018-07-05T18:59:39.189Z,28.77
2018-07-05T19:01:10.467Z,28.18
2018-07-05T19:02:42.149Z,27.17
2018-07-05T19:04:13.632Z,27.04
2018-07-05T19:05:45.415Z,27.03
2018-07-05T19:07:16.997Z,26.76
2018-07-05T19:08:48.729Z,27.72
2018-07-05T19:11:51.743Z,29.65
2018-07-05T19:13:23.121Z,29.65
2018-07-05T19:14:54.702Z,28.95
2018-07-05T19:16:26.400Z,28.31
2018-07-05T19:17:57.866Z,27.99
2018-07-05T19:19:29.451Z,27.74
2018-07-05T19:21:01.028Z,27.66
2018-07-05T19:22:32.912Z,27.69
2018-07-05T19:24:04.241Z,28.24
2018-07-05T19:25:36.318Z,28.64
2018-07-05T19:27:08.368Z,28.95
2018-07-05T19:28:39.211Z,28.96
2018-07-05T19:30:10.526Z,29.14
2018-07-05T19:31:42.096Z,29.27
2018-07-05T19:33:13.699Z,29.14
2018-07-05T19:36:17.044Z,28.30
2018-07-05T19:37:48.418Z,27.63
2018-07-05T19:39:20.000Z,27.29
2018-07-05T19:40:51.581Z,26.77
2018-07-05T19:43:54.742Z,26.13
2018-07-05T19:45:26.525Z,25.67
2018-07-05T19:46:57.971Z,25.54
2018-07-05T19:48:29.492Z,25.13
2018-07-05T19:50:01.073Z,25.05
2018-07-05T19:51:33.075Z,24.85
2018-07-05T19:53:04.223Z,24.62
2018-07-05T19:54:35.801Z,24.49
2018-07-05T19:56:07.381Z,24.34
2018-07-05T19:57:39.265Z,24.34
2018-07-05T19:59:10.541Z,24.12
2018-07-05T20:00:42.159Z,24.09
2018-07-05T20:02:13.699Z,24.13
2018-07-05T20:03:45.528Z,24.09
2018-07-05T20:06:48.453Z,23.76
2018-07-05T20:08:20.014Z,23.58
2018-07-05T20:09:51.593Z,23.20
2018-07-05T20:11:23.194Z,23.38
2018-07-05T20:12:55.088Z,23.58
2018-07-05T20:14:26.331Z,23.63
2018-07-05T20:15:57.907Z,23.65
2018-07-05T20:17:29.486Z,23.54
2018-07-05T20:19:01.123Z,23.47
2018-07-05T20:20:32.640Z,23.25
2018-07-05T20:22:04.319Z,23.09
2018-07-05T20:23:35.796Z,22.97
2018-07-05T20:25:07.389Z,23.09
2018-07-05T20:28:11.010Z,22.91
2018-07-05T20:29:42.120Z,22.91
2018-07-05T20:31:13.688Z,22.85
2018-07-05T20:32:45.259Z,22.77
2018-07-05T20:35:48.429Z,22.51
2018-07-05T20:37:19.989Z,22.37